Time;durP1;ratioP1;P1;durP2;ratioP2;P2;SDS_P1;SDS_P2;PMS_P1;PMS_P2;Temp;Humidity;BMP_temperature;BMP_pressure;BME280_temperature;BME280_humidity;BME280_pressure;Samples;Min_cycle;Max_cycle;Signal;HPM_P1;HPM_P2
2022/04/05 00:00:32;;;;;;;1.63;0.50;;;;;;;;;;5109804;28;20240;-16
2022/04/05 00:02:59;;;;;;;1.27;0.52;;;;;;;;;;5105331;27;20232;-16
2022/04/05 00:05:27;;;;;;;2.25;0.50;;;;;;;;;;5106851;28;20717;-16
2022/04/05 00:07:54;;;;;;;1.63;0.70;;;;;;;;;;5107591;27;20236;-16
2022/04/05 00:10:22;;;;;;;1.90;0.50;;;;;;;;;;5106526;27;21073;-16
2022/04/05 00:12:49;;;;;;;3.47;0.60;;;;;;;;;;5109822;27;20327;-16
2022/04/05 00:15:16;;;;;;;6.80;1.13;;;;;;;;;;5110226;27;20232;-16
2022/04/05 00:17:45;;;;;;;20.70;1.05;;;;;;;;;;5111399;28;20228;-16
2022/04/05 00:20:13;;;;;;;7.50;0.73;;;;;;;;;;5112410;27;21098;-16
2022/04/05 00:22:40;;;;;;;4.82;0.70;;;;;;;;;;5117406;27;20248;-16
2022/04/05 00:25:08;;;;;;;4.38;0.70;;;;;;;;;;5121904;27;20227;-16
2022/04/05 00:27:36;;;;;;;7.75;0.70;;;;;;;;;;5122427;27;20228;-16
2022/04/05 00:30:03;;;;;;;1.45;0.50;;;;;;;;;;5121351;27;20232;-16
2022/04/05 00:32:31;;;;;;;4.72;0.65;;;;;;;;;;5118187;27;20232;-16
2022/04/05 00:34:59;;;;;;;4.05;0.50;;;;;;;;;;5116877;27;20224;-16
2022/04/05 00:37:26;;;;;;;5.50;0.70;;;;;;;;;;5117983;27;21021;-16
2022/04/05 00:39:54;;;;;;;12.38;1.15;;;;;;;;;;5114965;27;20227;-16
2022/04/05 00:42:22;;;;;;;7.25;0.52;;;;;;;;;;5118959;27;20662;-16
2022/04/05 00:44:49;;;;;;;6.35;0.70;;;;;;;;;;5118174;27;20232;-16
2022/04/05 00:47:17;;;;;;;3.78;0.60;;;;;;;;;;5119080;27;20227;-16
2022/04/05 00:49:45;;;;;;;0.68;0.40;;;;;;;;;;5120101;27;20238;-16
2022/04/05 00:52:13;;;;;;;5.53;1.23;;;;;;;;;;5121759;27;20232;-16
2022/04/05 00:54:41;;;;;;;3.22;0.63;;;;;;;;;;5120273;27;20224;-16
2022/04/05 00:57:09;;;;;;;1.75;0.50;;;;;;;;;;5120671;27;20224;-16
2022/04/05 00:59:37;;;;;;;1.10;0.50;;;;;;;;;;5118375;27;20236;-16
2022/04/05 01:02:04;;;;;;;5.97;0.82;;;;;;;;;;5120070;27;20240;-16
2022/04/05 01:04:33;;;;;;;1.48;0.40;;;;;;;;;;5121530;27;20310;-16
2022/04/05 01:07:00;;;;;;;1.17;0.50;;;;;;;;;;5115838;27;20228;-16
2022/04/05 01:09:29;;;;;;;1.45;0.57;;;;;;;;;;5117143;27;20710;-16
2022/04/05 01:11:56;;;;;;;5.35;0.50;;;;;;;;;;5112990;27;20239;-16
2022/04/05 01:14:24;;;;;;;2.05;0.40;;;;;;;;;;5114172;27;20220;-16
2022/04/05 01:16:51;;;;;;;1.77;0.40;;;;;;;;;;5114992;27;20231;-16
2022/04/05 01:19:19;;;;;;;1.25;0.57;;;;;;;;;;5112309;27;20236;-16
2022/04/05 01:21:46;;;;;;;2.28;0.38;;;;;;;;;;5113561;27;20243;-16
2022/04/05 01:24:15;;;;;;;2.42;0.63;;;;;;;;;;5107514;27;20231;-16
2022/04/05 01:26:43;;;;;;;2.63;0.73;;;;;;;;;;5108614;27;20227;-16
2022/04/05 01:29:10;;;;;;;2.78;0.40;;;;;;;;;;5108877;28;20691;-16
2022/04/05 01:31:38;;;;;;;1.45;0.30;;;;;;;;;;5109134;28;20239;-16
2022/04/05 01:34:05;;;;;;;1.77;0.40;;;;;;;;;;5114822;27;20575;-16
2022/04/05 01:36:33;;;;;;;2.15;0.85;;;;;;;;;;5117534;28;20721;-16
2022/04/05 01:39:00;;;;;;;2.10;0.40;;;;;;;;;;5114751;28;20611;-16
2022/04/05 01:41:29;;;;;;;1.52;0.40;;;;;;;;;;5117414;28;20242;-16
2022/04/05 01:43:56;;;;;;;3.47;0.40;;;;;;;;;;5117544;27;20232;-16
2022/04/05 01:46:23;;;;;;;1.00;0.45;;;;;;;;;;5116831;28;20235;-16
2022/04/05 01:48:52;;;;;;;1.95;0.30;;;;;;;;;;5116816;27;20323;-16
2022/04/05 01:51:19;;;;;;;0.73;0.40;;;;;;;;;;5117004;28;20239;-16
2022/04/05 01:53:46;;;;;;;0.73;0.40;;;;;;;;;;5117285;28;20227;-16
2022/04/05 01:56:14;;;;;;;1.33;0.30;;;;;;;;;;5116739;28;20239;-16
2022/04/05 01:58:42;;;;;;;0.70;0.45;;;;;;;;;;5117403;28;20227;-16
2022/04/05 02:01:10;;;;;;;1.08;0.40;;;;;;;;;;5117096;28;20227;-16
2022/04/05 02:03:37;;;;;;;1.10;0.30;;;;;;;;;;5117070;28;20595;-16
2022/04/05 02:06:05;;;;;;;1.73;0.60;;;;;;;;;;5117048;28;20224;-16
2022/04/05 02:08:32;;;;;;;1.52;0.30;;;;;;;;;;5117075;28;20234;-16
2022/04/05 02:11:00;;;;;;;0.70;0.40;;;;;;;;;;5116747;27;20340;-16
2022/04/05 02:13:28;;;;;;;1.88;0.60;;;;;;;;;;5116663;28;20315;-16
2022/04/05 02:15:56;;;;;;;1.15;0.50;;;;;;;;;;5116902;27;20254;-16
2022/04/05 02:18:24;;;;;;;0.82;0.32;;;;;;;;;;5113630;28;20228;-16
2022/04/05 02:20:54;;;;;;;1.77;0.40;;;;;;;;;;5127408;22;20242;-18
2022/04/05 02:23:21;;;;;;;0.35;0.30;;;;;;;;;;5080262;28;20234;-17
2022/04/05 02:25:49;;;;;;;0.45;0.40;;;;;;;;;;5080126;28;20221;-17
2022/04/05 02:28:16;;;;;;;3.15;0.30;;;;;;;;;;5082359;28;20237;-19
2022/04/05 02:30:43;;;;;;;1.60;0.50;;;;;;;;;;5081256;28;20229;-18
2022/04/05 02:33:12;;;;;;;1.15;0.47;;;;;;;;;;5081562;28;20237;-18
2022/04/05 02:35:40;;;;;;;0.60;0.45;;;;;;;;;;5087373;28;20795;-18
2022/04/05 02:38:07;;;;;;;0.65;0.30;;;;;;;;;;5082919;28;20236;-18
2022/04/05 02:40:34;;;;;;;1.35;0.30;;;;;;;;;;5080229;28;20249;-18
2022/04/05 02:43:02;;;;;;;1.33;0.32;;;;;;;;;;5079342;28;20692;-18
2022/04/05 02:45:29;;;;;;;3.38;0.30;;;;;;;;;;5078484;28;20233;-18
2022/04/05 02:47:56;;;;;;;1.50;0.30;;;;;;;;;;5078440;28;20663;-18
2022/04/05 02:50:25;;;;;;;2.00;0.45;;;;;;;;;;5080878;28;20248;-18
2022/04/05 02:52:53;;;;;;;0.63;0.32;;;;;;;;;;5076240;28;20711;-18
2022/04/05 02:55:21;;;;;;;0.45;0.30;;;;;;;;;;5080115;28;20237;-18
2022/04/05 02:57:48;;;;;;;1.13;0.30;;;;;;;;;;5077463;28;20703;-18
2022/04/05 03:00:17;;;;;;;0.73;0.40;;;;;;;;;;5079479;28;20243;-18
2022/04/05 03:02:44;;;;;;;0.70;0.38;;;;;;;;;;5075598;28;20244;-18
2022/04/05 03:05:13;;;;;;;1.17;0.40;;;;;;;;;;5080631;28;20236;-18
2022/04/05 03:07:42;;;;;;;1.20;0.40;;;;;;;;;;5079953;28;20216;-18
2022/04/05 03:10:10;;;;;;;0.43;0.30;;;;;;;;;;5080805;28;20747;-18
2022/04/05 03:12:37;;;;;;;1.45;0.20;;;;;;;;;;5075947;28;20259;-18
2022/04/05 03:15:05;;;;;;;1.67;0.40;;;;;;;;;;5077793;28;20237;-18
2022/04/05 03:17:33;;;;;;;0.57;0.28;;;;;;;;;;5077448;28;20769;-18
2022/04/05 03:20:00;;;;;;;1.25;0.30;;;;;;;;;;5079137;28;20252;-18
2022/04/05 03:22:28;;;;;;;0.68;0.32;;;;;;;;;;5108074;27;20239;-18
2022/04/05 03:24:56;;;;;;;0.50;0.20;;;;;;;;;;5113267;27;20258;-18
2022/04/05 03:27:24;;;;;;;0.57;0.45;;;;;;;;;;5117571;27;20980;-18
2022/04/05 03:29:51;;;;;;;0.82;0.30;;;;;;;;;;5116837;27;20243;-18
2022/04/05 03:32:18;;;;;;;0.38;0.20;;;;;;;;;;5118047;27;20272;-18
2022/04/05 03:34:46;;;;;;;1.25;0.40;;;;;;;;;;5114747;27;20347;-18
2022/04/05 03:37:13;;;;;;;1.40;0.52;;;;;;;;;;5113386;27;20231;-18
2022/04/05 03:39:40;;;;;;;0.60;0.20;;;;;;;;;;5113778;27;20235;-18
2022/04/05 03:42:09;;;;;;;0.60;0.30;;;;;;;;;;5113715;27;21081;-18
2022/04/05 03:44:36;;;;;;;0.95;0.30;;;;;;;;;;5115331;27;20233;-18
2022/04/05 03:47:04;;;;;;;0.95;0.30;;;;;;;;;;5113495;27;20947;-18
2022/04/05 03:49:31;;;;;;;1.35;0.35;;;;;;;;;;5114449;27;20239;-18
2022/04/05 03:51:59;;;;;;;0.82;0.30;;;;;;;;;;5112601;27;20698;-18
2022/04/05 03:54:26;;;;;;;0.73;0.20;;;;;;;;;;5113986;27;20232;-18
2022/04/05 03:56:53;;;;;;;0.60;0.30;;;;;;;;;;5113353;27;20224;-18
2022/04/05 03:59:22;;;;;;;0.85;0.30;;;;;;;;;;5114123;27;20393;-18
2022/04/05 04:01:49;;;;;;;0.85;0.40;;;;;;;;;;5114230;27;20236;-18
2022/04/05 04:04:17;;;;;;;0.60;0.30;;;;;;;;;;5113401;27;20306;-18
2022/04/05 04:06:44;;;;;;;0.65;0.30;;;;;;;;;;5116009;27;20230;-18
2022/04/05 04:09:12;;;;;;;0.55;0.40;;;;;;;;;;5114117;27;20235;-18
2022/04/05 04:11:40;;;;;;;0.80;0.40;;;;;;;;;;5114228;27;20238;-18
2022/04/05 04:14:08;;;;;;;0.40;0.40;;;;;;;;;;5113938;27;20232;-18
2022/04/05 04:16:36;;;;;;;0.60;0.40;;;;;;;;;;5115558;27;20216;-18
2022/04/05 04:19:04;;;;;;;0.60;0.32;;;;;;;;;;5110256;27;20228;-18
2022/04/05 04:21:31;;;;;;;0.90;0.50;;;;;;;;;;5113864;27;20243;-18
2022/04/05 04:23:58;;;;;;;0.30;0.30;;;;;;;;;;5114226;27;21071;-18
2022/04/05 04:26:26;;;;;;;0.68;0.30;;;;;;;;;;5114259;27;21024;-18
2022/04/05 04:28:55;;;;;;;0.60;0.40;;;;;;;;;;5114560;27;20276;-18
2022/04/05 04:31:23;;;;;;;2.05;0.40;;;;;;;;;;5116124;27;20313;-18
2022/04/05 04:33:51;;;;;;;1.45;0.30;;;;;;;;;;5112680;27;20224;-18
2022/04/05 04:36:19;;;;;;;0.40;0.28;;;;;;;;;;5113298;27;20235;-18
2022/04/05 04:38:46;;;;;;;0.52;0.30;;;;;;;;;;5115078;27;20227;-18
2022/04/05 04:41:13;;;;;;;0.63;0.30;;;;;;;;;;5113063;27;20247;-18
2022/04/05 04:43:41;;;;;;;2.03;0.30;;;;;;;;;;5120291;27;20235;-18
2022/04/05 04:46:08;;;;;;;1.40;0.30;;;;;;;;;;5114872;27;20231;-18
2022/04/05 04:48:35;;;;;;;1.02;0.30;;;;;;;;;;5118658;27;20231;-18
2022/04/05 04:51:04;;;;;;;0.40;0.22;;;;;;;;;;5113072;27;20228;-18
2022/04/05 04:53:31;;;;;;;1.10;0.40;;;;;;;;;;5118208;27;20227;-18
2022/04/05 04:55:59;;;;;;;0.47;0.30;;;;;;;;;;5116449;27;20227;-18
2022/04/05 04:58:35;;;;;;;1.35;0.32;;;;;;;;;;5112873;27;20239;-18
2022/04/05 05:01:02;;;;;;;0.30;0.20;;;;;;;;;;5110947;28;21092;-18
2022/04/05 05:03:30;;;;;;;0.50;0.20;;;;;;;;;;5111694;27;20223;-18
2022/04/05 05:05:57;;;;;;;0.40;0.20;;;;;;;;;;5117187;27;20971;-18
2022/04/05 05:08:26;;;;;;;0.32;0.20;;;;;;;;;;5114170;27;20230;-18
2022/04/05 05:10:53;;;;;;;1.02;0.43;;;;;;;;;;5117227;27;20721;-18
2022/04/05 05:13:21;;;;;;;1.50;0.30;;;;;;;;;;5110651;27;20746;-18
2022/04/05 05:15:49;;;;;;;0.45;0.20;;;;;;;;;;5109215;28;20700;-18
2022/04/05 05:18:17;;;;;;;1.27;1.00;;;;;;;;;;5118540;27;20371;-18
2022/04/05 05:20:44;;;;;;;0.70;0.20;;;;;;;;;;5121190;27;20242;-18
2022/04/05 05:23:11;;;;;;;0.75;0.30;;;;;;;;;;5117287;27;20236;-18
2022/04/05 05:25:41;;;;;;;0.20;0.20;;;;;;;;;;5111567;27;20226;-18
2022/04/05 05:28:08;;;;;;;0.20;0.20;;;;;;;;;;5117178;27;20282;-18
2022/04/05 05:30:36;;;;;;;0.77;0.40;;;;;;;;;;5112439;27;20234;-18
2022/04/05 05:33:03;;;;;;;0.73;0.30;;;;;;;;;;5121496;27;20236;-18
2022/04/05 05:35:30;;;;;;;0.40;0.20;;;;;;;;;;5110251;28;20232;-18
2022/04/05 05:37:58;;;;;;;0.47;0.10;;;;;;;;;;5112448;27;20235;-18
2022/04/05 05:40:25;;;;;;;0.52;0.22;;;;;;;;;;5111966;27;21004;-18
2022/04/05 05:42:55;;;;;;;0.20;0.20;;;;;;;;;;5111615;27;20246;-18
2022/04/05 05:45:22;;;;;;;1.85;0.25;;;;;;;;;;5111544;27;20235;-18
2022/04/05 05:47:50;;;;;;;2.55;0.17;;;;;;;;;;5107406;27;20546;-18
2022/04/05 05:50:17;;;;;;;0.38;0.20;;;;;;;;;;5113825;27;20223;-18
2022/04/05 05:52:44;;;;;;;0.30;0.20;;;;;;;;;;5112091;27;20219;-18
2022/04/05 05:55:12;;;;;;;0.63;0.20;;;;;;;;;;5111804;27;20224;-18
2022/04/05 05:57:39;;;;;;;0.22;0.20;;;;;;;;;;5113618;27;20231;-18
2022/04/05 06:00:09;;;;;;;0.20;0.20;;;;;;;;;;5112946;27;20224;-18
2022/04/05 06:02:37;;;;;;;1.85;0.20;;;;;;;;;;5108588;27;20694;-18
2022/04/05 06:05:05;;;;;;;0.28;0.20;;;;;;;;;;5112745;27;20954;-18
2022/04/05 06:07:33;;;;;;;0.40;0.30;;;;;;;;;;5112226;27;20232;-18
2022/04/05 06:10:01;;;;;;;0.25;0.20;;;;;;;;;;5113111;27;20234;-18
2022/04/05 06:12:28;;;;;;;0.77;0.35;;;;;;;;;;5110586;27;20224;-18
2022/04/05 06:14:55;;;;;;;1.55;0.30;;;;;;;;;;5112243;27;20783;-18
2022/04/05 06:17:24;;;;;;;3.70;0.30;;;;;;;;;;5110391;27;20244;-18
2022/04/05 06:19:52;;;;;;;1.33;0.40;;;;;;;;;;5108196;27;20278;-18
2022/04/05 06:22:19;;;;;;;3.55;0.40;;;;;;;;;;5115295;27;20322;-18
2022/04/05 06:24:47;;;;;;;5.75;0.43;;;;;;;;;;5115005;27;20228;-18
2022/04/05 06:27:14;;;;;;;7.88;0.32;;;;;;;;;;5121579;27;20258;-18
2022/04/05 06:29:41;;;;;;;2.78;0.35;;;;;;;;;;5114408;27;20232;-18
2022/04/05 06:32:09;;;;;;;1.90;0.32;;;;;;;;;;5117325;27;20232;-18
2022/04/05 06:34:37;;;;;;;4.57;0.30;;;;;;;;;;5119191;27;20671;-18
2022/04/05 06:37:05;;;;;;;1.50;0.30;;;;;;;;;;5119493;27;20232;-18
2022/04/05 06:39:32;;;;;;;0.40;0.22;;;;;;;;;;5116994;27;20982;-18
2022/04/05 06:41:59;;;;;;;1.55;0.30;;;;;;;;;;5115698;27;20232;-18
2022/04/05 06:44:26;;;;;;;2.15;0.40;;;;;;;;;;5116634;27;20722;-18
2022/04/05 06:46:54;;;;;;;2.05;0.30;;;;;;;;;;5115904;27;20302;-18
2022/04/05 06:49:21;;;;;;;0.55;0.35;;;;;;;;;;5124341;27;20235;-18
2022/04/05 06:51:50;;;;;;;3.58;0.45;;;;;;;;;;5112817;27;20223;-18
2022/04/05 06:54:17;;;;;;;1.98;0.20;;;;;;;;;;5118614;27;20599;-18
2022/04/05 06:56:45;;;;;;;0.57;0.30;;;;;;;;;;5116995;27;20238;-18
2022/04/05 06:59:12;;;;;;;0.30;0.22;;;;;;;;;;5113975;27;20601;-18
2022/04/05 07:01:39;;;;;;;3.47;0.77;;;;;;;;;;5120737;27;20232;-18
2022/04/05 07:04:07;;;;;;;3.08;0.50;;;;;;;;;;5112387;27;20232;-18
2022/04/05 07:06:35;;;;;;;0.57;0.38;;;;;;;;;;5115489;27;20589;-18
2022/04/05 07:09:05;;;;;;;0.65;0.40;;;;;;;;;;5114136;27;20228;-18
2022/04/05 07:11:32;;;;;;;2.53;0.38;;;;;;;;;;5120874;27;20224;-18
2022/04/05 07:13:59;;;;;;;0.57;0.22;;;;;;;;;;5115569;27;21108;-18
2022/04/05 07:16:27;;;;;;;3.70;0.43;;;;;;;;;;5112779;27;20231;-18
2022/04/05 07:18:54;;;;;;;2.60;0.35;;;;;;;;;;5118087;27;20228;-18
2022/04/05 07:21:22;;;;;;;0.85;0.25;;;;;;;;;;5113345;27;20339;-18
2022/04/05 07:23:49;;;;;;;4.53;0.40;;;;;;;;;;5110355;27;20232;-18
2022/04/05 07:26:21;;;;;;;2.05;0.50;;;;;;;;;;5108512;27;20221;-18
2022/04/05 07:28:48;;;;;;;1.08;0.38;;;;;;;;;;5111664;28;20284;-18
2022/04/05 07:31:16;;;;;;;1.73;0.60;;;;;;;;;;5112321;27;20220;-18
2022/04/05 07:33:43;;;;;;;0.63;0.30;;;;;;;;;;5112620;27;21023;-18
2022/04/05 07:36:10;;;;;;;1.48;0.22;;;;;;;;;;5110901;27;20228;-18
2022/04/05 07:38:38;;;;;;;5.35;0.30;;;;;;;;;;5111395;27;21036;-18
2022/04/05 07:41:05;;;;;;;8.70;0.80;;;;;;;;;;5113837;27;20239;-18
2022/04/05 07:43:34;;;;;;;11.90;0.60;;;;;;;;;;5111342;27;20313;-18
2022/04/05 07:46:01;;;;;;;4.68;0.52;;;;;;;;;;5114494;27;20703;-18
2022/04/05 07:48:29;;;;;;;5.70;0.50;;;;;;;;;;5114288;27;20318;-18
2022/04/05 07:50:57;;;;;;;4.28;0.50;;;;;;;;;;5115212;27;20228;-18
2022/04/05 07:53:25;;;;;;;30.90;1.27;;;;;;;;;;5114815;27;20420;-18
2022/04/05 07:55:54;;;;;;;14.80;1.45;;;;;;;;;;5109306;27;20228;-18
2022/04/05 07:58:21;;;;;;;10.23;0.98;;;;;;;;;;5116607;27;20227;-18
2022/04/05 08:00:50;;;;;;;10.15;0.93;;;;;;;;;;5108158;27;20423;-18
2022/04/05 08:03:18;;;;;;;9.70;1.05;;;;;;;;;;5113020;27;20224;-18
2022/04/05 08:05:46;;;;;;;6.53;1.20;;;;;;;;;;5116597;27;20231;-18
2022/04/05 08:08:14;;;;;;;12.57;1.10;;;;;;;;;;5116690;27;20227;-18
2022/04/05 08:11:01;;;;;;;6.50;1.00;;;;;;;;;;5112908;27;20760;-18
2022/04/05 08:13:28;;;;;;;12.35;1.05;;;;;;;;;;5116510;27;20228;-18
2022/04/05 08:15:57;;;;;;;10.50;1.10;;;;;;;;;;5114159;27;20699;-18
2022/04/05 08:18:24;;;;;;;3.83;1.08;;;;;;;;;;5116549;27;20718;-18
2022/04/05 08:20:52;;;;;;;9.98;1.23;;;;;;;;;;5112640;27;20231;-18
2022/04/05 08:23:19;;;;;;;6.90;1.60;;;;;;;;;;5109519;27;21021;-18
2022/04/05 08:25:47;;;;;;;6.80;1.15;;;;;;;;;;5111481;27;20220;-18
2022/04/05 08:28:14;;;;;;;4.80;1.00;;;;;;;;;;5115167;27;20749;-18
2022/04/05 08:30:41;;;;;;;8.23;1.30;;;;;;;;;;5114866;27;20224;-18
2022/04/05 08:33:10;;;;;;;5.35;1.40;;;;;;;;;;5114537;27;20695;-18
2022/04/05 08:35:39;;;;;;;2.97;0.77;;;;;;;;;;5115185;27;20219;-18
2022/04/05 08:38:07;;;;;;;10.43;1.42;;;;;;;;;;5105623;27;20240;-17
2022/04/05 08:40:34;;;;;;;5.43;1.60;;;;;;;;;;5104268;27;20282;-17
2022/04/05 08:43:01;;;;;;;7.80;1.48;;;;;;;;;;5104999;28;20228;-17
2022/04/05 08:45:29;;;;;;;4.50;1.42;;;;;;;;;;5107446;28;20323;-17
2022/04/05 08:47:56;;;;;;;3.22;1.52;;;;;;;;;;5109684;27;20243;-18
2022/04/05 08:50:26;;;;;;;3.58;1.60;;;;;;;;;;5108638;27;20236;-18
2022/04/05 08:52:54;;;;;;;4.97;1.65;;;;;;;;;;5110445;27;20232;-18
2022/04/05 08:55:21;;;;;;;2.53;1.58;;;;;;;;;;5108207;27;20228;-18
2022/04/05 08:57:49;;;;;;;7.78;2.10;;;;;;;;;;5107729;28;20238;-17
2022/04/05 09:00:19;;;;;;;4.30;1.80;;;;;;;;;;5110883;27;20247;-17
2022/04/05 09:02:56;;;;;;;3.13;1.90;;;;;;;;;;5107621;28;20252;-17
2022/04/05 09:05:28;;;;;;;6.07;2.13;;;;;;;;;;5108956;27;20420;-17
2022/04/05 09:08:14;;;;;;;6.72;1.95;;;;;;;;;;5108368;27;20297;-18
2022/04/05 09:10:41;;;;;;;10.15;2.47;;;;;;;;;;5107812;27;20233;-17
2022/04/05 09:13:09;;;;;;;9.63;2.67;;;;;;;;;;5107144;27;20231;-18
2022/04/05 09:15:37;;;;;;;13.98;2.55;;;;;;;;;;5105995;28;20249;-17
2022/04/05 09:18:04;;;;;;;8.95;2.17;;;;;;;;;;5108535;28;20232;-18
2022/04/05 09:20:33;;;;;;;9.80;2.25;;;;;;;;;;5115056;27;20259;-17
2022/04/05 09:23:02;;;;;;;10.20;2.60;;;;;;;;;;5094284;27;20418;-18
2022/04/05 09:25:29;;;;;;;8.75;2.30;;;;;;;;;;5105143;27;20426;-18
2022/04/05 09:27:57;;;;;;;5.93;2.22;;;;;;;;;;5116008;27;20232;-18
2022/04/05 09:30:27;;;;;;;5.95;2.17;;;;;;;;;;5112929;27;20405;-17
2022/04/05 09:32:55;;;;;;;6.63;2.42;;;;;;;;;;5109763;27;20239;-17
2022/04/05 09:35:25;;;;;;;9.63;2.42;;;;;;;;;;5111002;27;20234;-17
2022/04/05 09:37:53;;;;;;;5.70;1.90;;;;;;;;;;5105953;27;20223;-17
2022/04/05 09:40:22;;;;;;;11.57;2.55;;;;;;;;;;5108079;27;20230;-18
2022/04/05 09:42:57;;;;;;;5.40;2.13;;;;;;;;;;5109070;27;20227;-17
2022/04/05 09:45:40;;;;;;;7.32;2.22;;;;;;;;;;5105291;27;20235;-17
2022/04/05 09:48:08;;;;;;;6.82;2.00;;;;;;;;;;5108391;27;20240;-18
2022/04/05 09:50:44;;;;;;;3.80;2.05;;;;;;;;;;5110716;27;20335;-17
2022/04/05 09:53:12;;;;;;;4.20;2.00;;;;;;;;;;5105915;27;20235;-18
2022/04/05 09:55:39;;;;;;;3.28;1.88;;;;;;;;;;5115008;27;20824;-17
2022/04/05 09:58:12;;;;;;;3.87;2.00;;;;;;;;;;5116466;27;20426;-18
2022/04/05 10:00:41;;;;;;;3.72;1.67;;;;;;;;;;5108920;28;20995;-18
2022/04/05 10:03:09;;;;;;;6.05;2.03;;;;;;;;;;5114321;27;20425;-18
2022/04/05 10:05:37;;;;;;;6.28;1.83;;;;;;;;;;5115772;27;20235;-17
2022/04/05 10:08:04;;;;;;;3.03;1.60;;;;;;;;;;5111019;27;20913;-19
2022/04/05 10:10:33;;;;;;;3.38;1.80;;;;;;;;;;5112168;27;20428;-17
2022/04/05 10:13:00;;;;;;;8.13;1.50;;;;;;;;;;5111716;27;20698;-17
2022/04/05 10:15:28;;;;;;;3.38;1.90;;;;;;;;;;5114969;27;20235;-17
2022/04/05 10:17:56;;;;;;;2.13;1.45;;;;;;;;;;5111503;27;20289;-18
2022/04/05 10:20:25;;;;;;;2.60;1.42;;;;;;;;;;5111856;27;20313;-18
2022/04/05 10:22:53;;;;;;;3.05;1.50;;;;;;;;;;5109457;28;20833;-18
2022/04/05 10:25:21;;;;;;;2.45;1.70;;;;;;;;;;5108620;28;20242;-19
2022/04/05 10:27:50;;;;;;;3.35;1.70;;;;;;;;;;5109552;28;20238;-18
2022/04/05 10:30:18;;;;;;;2.55;1.55;;;;;;;;;;5109896;27;20228;-18
2022/04/05 10:32:47;;;;;;;3.35;1.60;;;;;;;;;;5113072;27;20587;-18
2022/04/05 10:35:15;;;;;;;5.28;1.60;;;;;;;;;;5114586;27;20228;-18
2022/04/05 10:37:42;;;;;;;3.53;1.27;;;;;;;;;;5116537;27;20227;-18
2022/04/05 10:40:10;;;;;;;3.50;1.50;;;;;;;;;;5117885;27;20709;-18
2022/04/05 10:42:38;;;;;;;4.32;1.70;;;;;;;;;;5108237;27;20236;-18
2022/04/05 10:45:13;;;;;;;6.53;1.63;;;;;;;;;;5109977;27;21035;-17
2022/04/05 10:47:56;;;;;;;3.20;1.50;;;;;;;;;;5108186;27;21085;-17
2022/04/05 10:50:44;;;;;;;17.33;2.08;;;;;;;;;;5104986;27;20540;-19
2022/04/05 10:53:16;;;;;;;3.28;1.30;;;;;;;;;;5102124;27;20236;-17
2022/04/05 10:56:03;;;;;;;7.32;1.52;;;;;;;;;;5105730;27;20423;-17
2022/04/05 10:58:30;;;;;;;3.22;1.30;;;;;;;;;;5106387;27;20231;-17
2022/04/05 11:04:05;;;;;;;3.60;1.50;;;;;;;;;;5136558;27;20961;-17
2022/04/05 11:06:35;;;;;;;6.15;1.20;;;;;;;;;;5122532;27;20255;-17
2022/04/05 11:09:03;;;;;;;5.20;1.60;;;;;;;;;;5119475;27;20231;-17
2022/04/05 11:11:30;;;;;;;3.13;1.13;;;;;;;;;;5123873;27;20230;-17
2022/04/05 11:14:02;;;;;;;4.00;1.38;;;;;;;;;;5117254;27;20242;-17
2022/04/05 11:16:29;;;;;;;12.13;1.73;;;;;;;;;;5117524;27;20229;-16
2022/04/05 11:18:57;;;;;;;6.80;1.63;;;;;;;;;;5123946;27;20281;-17
2022/04/05 11:21:24;;;;;;;1.92;1.17;;;;;;;;;;5116993;27;20239;-16
2022/04/05 11:23:53;;;;;;;1.73;1.20;;;;;;;;;;5120997;27;20235;-17
2022/04/05 11:26:35;;;;;;;6.47;2.22;;;;;;;;;;5118238;27;20238;-17
2022/04/05 11:29:03;;;;;;;4.53;1.30;;;;;;;;;;5121842;27;20235;-16
2022/04/05 11:31:34;;;;;;;5.88;1.25;;;;;;;;;;5121827;27;20318;-17
2022/04/05 11:34:03;;;;;;;9.27;1.60;;;;;;;;;;5123691;27;20425;-18
2022/04/05 11:36:31;;;;;;;4.72;1.48;;;;;;;;;;5122087;27;20235;-17
2022/04/05 11:38:59;;;;;;;4.68;1.20;;;;;;;;;;5120945;27;20231;-17
2022/04/05 11:41:27;;;;;;;3.47;1.90;;;;;;;;;;5122855;27;20241;-16
2022/04/05 11:43:55;;;;;;;4.57;1.90;;;;;;;;;;5124381;27;20231;-17
2022/04/05 11:46:23;;;;;;;4.10;1.70;;;;;;;;;;5124435;27;20690;-16
2022/04/05 11:48:51;;;;;;;5.60;1.83;;;;;;;;;;5121307;27;20236;-18
2022/04/05 11:51:19;;;;;;;2.05;1.40;;;;;;;;;;5122115;27;20231;-18
2022/04/05 11:53:46;;;;;;;4.13;1.45;;;;;;;;;;5123668;27;20898;-18
2022/04/05 11:56:17;;;;;;;2.78;1.58;;;;;;;;;;5125457;27;20565;-17
2022/04/05 11:58:46;;;;;;;3.20;1.38;;;;;;;;;;5121277;27;20223;-17
2022/04/05 12:01:14;;;;;;;2.85;1.40;;;;;;;;;;5124359;27;20242;-17
2022/04/05 12:03:45;;;;;;;9.02;1.58;;;;;;;;;;5122511;27;20668;-18
2022/04/05 12:06:12;;;;;;;3.08;1.55;;;;;;;;;;5125752;27;20223;-17
2022/04/05 12:08:40;;;;;;;2.83;1.35;;;;;;;;;;5122579;27;20236;-18
2022/04/05 12:11:07;;;;;;;4.13;1.20;;;;;;;;;;5121649;27;20230;-17
2022/04/05 12:13:36;;;;;;;2.50;1.63;;;;;;;;;;5118215;27;20251;-17
2022/04/05 12:16:04;;;;;;;2.83;1.30;;;;;;;;;;5109917;27;20243;-17
2022/04/05 12:18:31;;;;;;;3.05;1.50;;;;;;;;;;5111223;27;20232;-17
2022/04/05 12:20:59;;;;;;;2.38;1.40;;;;;;;;;;5108182;27;20236;-17
2022/04/05 12:23:30;;;;;;;2.55;1.20;;;;;;;;;;5109905;27;20236;-16
2022/04/05 12:26:04;;;;;;;1.80;1.20;;;;;;;;;;5108571;28;20242;-18
2022/04/05 12:28:31;;;;;;;2.10;1.35;;;;;;;;;;5110816;27;20262;-17
2022/04/05 12:31:07;;;;;;;3.00;1.60;;;;;;;;;;5109720;27;20228;-17
2022/04/05 12:33:34;;;;;;;2.10;1.80;;;;;;;;;;5104912;27;20289;-17
2022/04/05 12:36:01;;;;;;;4.25;1.50;;;;;;;;;;5108899;27;20236;-18
2022/04/05 12:38:29;;;;;;;3.08;1.48;;;;;;;;;;5105916;28;20617;-16
2022/04/05 12:40:56;;;;;;;2.17;1.50;;;;;;;;;;5110475;27;20246;-17
2022/04/05 12:43:23;;;;;;;2.22;1.50;;;;;;;;;;5108870;27;20244;-17
2022/04/05 12:45:51;;;;;;;1.63;1.30;;;;;;;;;;5110586;28;20323;-16
2022/04/05 12:48:20;;;;;;;9.10;2.20;;;;;;;;;;5107435;28;20251;-17
2022/04/05 12:50:49;;;;;;;5.95;2.03;;;;;;;;;;5110669;27;20258;-17
2022/04/05 12:53:23;;;;;;;3.55;1.70;;;;;;;;;;5110767;27;20231;-18
2022/04/05 12:55:55;;;;;;;3.58;1.65;;;;;;;;;;5111338;27;20231;-18
2022/04/05 12:58:32;;;;;;;3.13;1.35;;;;;;;;;;5108364;27;20231;-17
2022/04/05 13:01:00;;;;;;;5.00;1.85;;;;;;;;;;5111809;27;20232;-17
2022/04/05 13:03:31;;;;;;;6.65;2.05;;;;;;;;;;5108679;27;20248;-17
2022/04/05 13:08:40;;;;;;;2.58;1.70;;;;;;;;;;5106666;27;20613;-18
2022/04/05 13:11:20;;;;;;;2.90;1.20;;;;;;;;;;5108843;27;20228;-18
2022/04/05 13:13:48;;;;;;;6.03;1.63;;;;;;;;;;5108827;28;20253;-16
2022/04/05 13:16:15;;;;;;;2.40;1.20;;;;;;;;;;5103125;28;20725;-17
2022/04/05 13:18:45;;;;;;;5.35;1.75;;;;;;;;;;5108694;28;20691;-17
2022/04/05 13:21:12;;;;;;;7.07;1.45;;;;;;;;;;5108498;27;20236;-18
2022/04/05 13:23:40;;;;;;;6.10;1.40;;;;;;;;;;5109457;27;20250;-17
2022/04/05 13:26:18;;;;;;;3.85;1.35;;;;;;;;;;5108308;27;20602;-17
2022/04/05 13:28:46;;;;;;;3.42;1.27;;;;;;;;;;5105763;27;20805;-17
2022/04/05 13:31:17;;;;;;;2.97;1.27;;;;;;;;;;5109442;27;20267;-17
2022/04/05 13:33:45;;;;;;;6.07;1.40;;;;;;;;;;5107229;27;20264;-18
2022/04/05 13:36:13;;;;;;;1.88;1.33;;;;;;;;;;5103771;27;20228;-17
2022/04/05 13:38:40;;;;;;;8.27;1.80;;;;;;;;;;5103278;27;20435;-18
2022/04/05 13:41:09;;;;;;;3.38;1.38;;;;;;;;;;5110805;27;20254;-17
2022/04/05 13:43:36;;;;;;;2.50;1.10;;;;;;;;;;5105352;28;20244;-17
2022/04/05 13:46:04;;;;;;;1.98;1.30;;;;;;;;;;5110168;27;20228;-17
2022/04/05 13:48:31;;;;;;;3.67;1.73;;;;;;;;;;5108079;27;20243;-17
2022/04/05 13:51:00;;;;;;;4.60;1.42;;;;;;;;;;5105582;27;20235;-16
2022/04/05 13:53:45;;;;;;;4.78;1.42;;;;;;;;;;5106200;28;20228;-17
2022/04/05 13:56:13;;;;;;;2.72;1.30;;;;;;;;;;5110080;27;20239;-17
2022/04/05 13:58:40;;;;;;;2.35;1.50;;;;;;;;;;5108084;27;20760;-17
2022/04/05 14:01:08;;;;;;;4.95;1.10;;;;;;;;;;5107054;27;20235;-17
2022/04/05 14:03:36;;;;;;;7.88;1.35;;;;;;;;;;5107209;28;20706;-17
2022/04/05 14:06:06;;;;;;;1.52;1.02;;;;;;;;;;5108602;27;20264;-17
2022/04/05 14:08:37;;;;;;;2.42;1.25;;;;;;;;;;5108688;27;20232;-17
2022/04/05 14:11:05;;;;;;;2.88;1.23;;;;;;;;;;5107399;28;20263;-18
2022/04/05 14:13:52;;;;;;;3.95;1.35;;;;;;;;;;5109905;27;20273;-17
2022/04/05 14:16:20;;;;;;;9.15;1.38;;;;;;;;;;5106098;28;20236;-17
2022/04/05 14:18:47;;;;;;;8.57;1.75;;;;;;;;;;5110528;27;20689;-18
2022/04/05 14:21:31;;;;;;;14.18;1.33;;;;;;;;;;5105414;28;20633;-17
2022/04/05 14:24:00;;;;;;;5.50;1.20;;;;;;;;;;5106289;28;20270;-16
2022/04/05 14:26:27;;;;;;;10.98;1.60;;;;;;;;;;5107859;27;20231;-17
2022/04/05 14:28:56;;;;;;;9.38;1.20;;;;;;;;;;5107807;28;20243;-17
2022/04/05 14:31:23;;;;;;;8.90;1.30;;;;;;;;;;5108265;27;20821;-17
2022/04/05 14:33:51;;;;;;;2.97;1.20;;;;;;;;;;5104246;28;20600;-18
2022/04/05 14:36:18;;;;;;;7.13;1.40;;;;;;;;;;5104718;27;20232;-17
2022/04/05 14:38:47;;;;;;;4.13;1.40;;;;;;;;;;5106044;27;20923;-17
2022/04/05 14:41:18;;;;;;;6.45;1.52;;;;;;;;;;5109409;27;20422;-15
2022/04/05 14:43:45;;;;;;;5.75;1.65;;;;;;;;;;5105648;27;20293;-17
2022/04/05 14:46:12;;;;;;;7.95;2.00;;;;;;;;;;5106668;27;20228;-18
2022/04/05 14:48:40;;;;;;;6.82;1.40;;;;;;;;;;5106068;27;20228;-18
2022/04/05 14:51:07;;;;;;;4.03;1.50;;;;;;;;;;5107688;27;20254;-18
2022/04/05 14:53:34;;;;;;;3.10;1.35;;;;;;;;;;5106733;27;20239;-17
2022/04/05 14:56:03;;;;;;;5.20;1.63;;;;;;;;;;5104790;27;20331;-18